sensor_id;sensor_type;location;lat;lon;timestamp;pressure;altitude;pressure_sealevel;temperature;humidity
70521;BME280;58442;52.716;23.560;2023-04-22T00:00:12;101272.46;;;11.48;52.23
70521;BME280;58442;52.716;23.560;2023-04-22T00:02:19;101270.97;;;11.38;52.56
70521;BME280;58442;52.716;23.560;2023-04-22T00:04:24;101272.00;;;11.34;52.71
70521;BME280;58442;52.716;23.560;2023-04-22T00:06:25;101276.65;;;11.33;52.80
70521;BME280;58442;52.716;23.560;2023-04-22T00:08:28;101271.20;;;11.33;52.84
70521;BME280;58442;52.716;23.560;2023-04-22T00:10:29;101270.73;;;11.31;52.88
70521;BME280;58442;52.716;23.560;2023-04-22T00:12:38;101270.28;;;11.29;52.89
70521;BME280;58442;52.716;23.560;2023-04-22T00:14:39;101265.63;;;11.30;52.99
70521;BME280;58442;52.716;23.560;2023-04-22T00:16:40;101270.28;;;11.29;53.05
70521;BME280;58442;52.716;23.560;2023-04-22T00:18:42;101264.05;;;11.29;52.99
70521;BME280;58442;52.716;23.560;2023-04-22T00:20:52;101267.56;;;11.29;52.94
70521;BME280;58442;52.716;23.560;2023-04-22T00:22:54;101265.19;;;11.28;53.08
70521;BME280;58442;52.716;23.560;2023-04-22T00:24:56;101265.85;;;11.24;53.19
70521;BME280;58442;52.716;23.560;2023-04-22T00:26:57;101266.20;;;11.23;53.20
70521;BME280;58442;52.716;23.560;2023-04-22T00:29:07;101261.09;;;11.21;53.20
70521;BME280;58442;52.716;23.560;2023-04-22T00:31:09;101264.95;;;11.20;53.24
70521;BME280;58442;52.716;23.560;2023-04-22T00:33:10;101262.58;;;11.19;53.34
70521;BME280;58442;52.716;23.560;2023-04-22T00:35:12;101261.66;;;11.15;53.38
70521;BME280;58442;52.716;23.560;2023-04-22T00:37:23;101263.58;;;11.14;53.48
70521;BME280;58442;52.716;23.560;2023-04-22T00:39:24;101263.45;;;11.11;53.59
70521;BME280;58442;52.716;23.560;2023-04-22T00:41:26;101259.48;;;11.08;53.51
70521;BME280;58442;52.716;23.560;2023-04-22T00:43:28;101264.49;;;11.06;53.70
70521;BME280;58442;52.716;23.560;2023-04-22T00:45:38;101265.61;;;11.05;53.66
70521;BME280;58442;52.716;23.560;2023-04-22T00:47:40;101270.13;;;11.01;53.78
70521;BME280;58442;52.716;23.560;2023-04-22T00:49:42;101263.45;;;10.99;53.94
70521;BME280;58442;52.716;23.560;2023-04-22T00:51:43;101261.39;;;10.95;54.04
70521;BME280;58442;52.716;23.560;2023-04-22T00:53:52;101256.63;;;10.92;54.10
70521;BME280;58442;52.716;23.560;2023-04-22T00:55:54;101262.73;;;10.89;54.32
70521;BME280;58442;52.716;23.560;2023-04-22T00:57:57;101261.48;;;10.87;54.34
70521;BME280;58442;52.716;23.560;2023-04-22T01:00:00;101259.11;;;10.85;54.32
70521;BME280;58442;52.716;23.560;2023-04-22T01:02:07;101263.28;;;10.83;54.31
70521;BME280;58442;52.716;23.560;2023-04-22T01:04:08;101261.70;;;10.82;54.36
70521;BME280;58442;52.716;23.560;2023-04-22T01:06:18;101263.17;;;10.79;54.43
70521;BME280;58442;52.716;23.560;2023-04-22T01:08:20;101259.97;;;10.77;54.40
70521;BME280;58442;52.716;23.560;2023-04-22T01:10:22;101258.39;;;10.76;54.38
70521;BME280;58442;52.716;23.560;2023-04-22T01:12:24;101264.50;;;10.73;54.49
70521;BME280;58442;52.716;23.560;2023-04-22T01:14:25;101274.34;;;10.65;54.74
70521;BME280;58442;52.716;23.560;2023-04-22T01:16:28;101271.42;;;10.50;55.19
70521;BME280;58442;52.716;23.560;2023-04-22T01:18:37;101269.66;;;10.33;55.74
70521;BME280;58442;52.716;23.560;2023-04-22T01:20:38;101269.55;;;10.21;56.28
70521;BME280;58442;52.716;23.560;2023-04-22T01:22:43;101271.67;;;10.15;56.61
70521;BME280;58442;52.716;23.560;2023-04-22T01:24:45;101275.52;;;10.14;56.72
70521;BME280;58442;52.716;23.560;2023-04-22T01:26:51;101276.46;;;10.18;56.45
70521;BME280;58442;52.716;23.560;2023-04-22T01:28:53;101281.23;;;10.21;56.66
70521;BME280;58442;52.716;23.560;2023-04-22T01:30:58;101277.38;;;10.22;56.74
70521;BME280;58442;52.716;23.560;2023-04-22T01:33:00;101272.28;;;10.21;56.73
70521;BME280;58442;52.716;23.560;2023-04-22T01:35:08;101274.54;;;10.19;56.87
70521;BME280;58442;52.716;23.560;2023-04-22T01:37:09;101272.16;;;10.17;56.99
70521;BME280;58442;52.716;23.560;2023-04-22T01:39:11;101276.46;;;10.18;56.98
70521;BME280;58442;52.716;23.560;2023-04-22T01:41:13;101267.98;;;10.20;56.93
70521;BME280;58442;52.716;23.560;2023-04-22T01:43:22;101273.41;;;10.20;56.88
70521;BME280;58442;52.716;23.560;2023-04-22T01:45:23;101266.84;;;10.21;56.85
70521;BME280;58442;52.716;23.560;2023-04-22T01:47:25;101273.07;;;10.21;56.88
70521;BME280;58442;52.716;23.560;2023-04-22T01:49:27;101277.38;;;10.22;56.87
70521;BME280;58442;52.716;23.560;2023-04-22T01:51:36;101274.38;;;10.24;56.80
70521;BME280;58442;52.716;23.560;2023-04-22T01:53:38;101276.77;;;10.25;56.86
70521;BME280;58442;52.716;23.560;2023-04-22T01:55:40;101275.17;;;10.24;56.94
70521;BME280;58442;52.716;23.560;2023-04-22T01:57:43;101267.81;;;10.25;56.92
70521;BME280;58442;52.716;23.560;2023-04-22T01:59:51;101275.17;;;10.24;56.89
70521;BME280;58442;52.716;23.560;2023-04-22T02:01:53;101276.30;;;10.23;57.03
70521;BME280;58442;52.716;23.560;2023-04-22T02:03:54;101276.57;;;10.22;57.10
70521;BME280;58442;52.716;23.560;2023-04-22T02:05:55;101272.28;;;10.21;57.07
70521;BME280;58442;52.716;23.560;2023-04-22T02:08:06;101267.19;;;10.19;57.07
70521;BME280;58442;52.716;23.560;2023-04-22T02:10:08;101269.75;;;10.15;57.19
70521;BME280;58442;52.716;23.560;2023-04-22T02:12:11;101270.09;;;10.14;57.29
70521;BME280;58442;52.716;23.560;2023-04-22T02:14:13;101272.81;;;10.14;57.22
70521;BME280;58442;52.716;23.560;2023-04-22T02:16:21;101270.09;;;10.14;57.18
70521;BME280;58442;52.716;23.560;2023-04-22T02:18:22;101263.07;;;10.13;57.30
70521;BME280;58442;52.716;23.560;2023-04-22T02:20:24;101268.51;;;10.13;57.33
70521;BME280;58442;52.716;23.560;2023-04-22T02:22:26;101258.77;;;10.12;57.30
70521;BME280;58442;52.716;23.560;2023-04-22T02:24:36;101261.02;;;10.10;57.35
70521;BME280;58442;52.716;23.560;2023-04-22T02:26:37;101254.31;;;10.07;57.44
70521;BME280;58442;52.716;23.560;2023-04-22T02:28:39;101262.47;;;10.07;57.52
70521;BME280;58442;52.716;23.560;2023-04-22T02:30:43;101249.56;;;10.04;57.53
70521;BME280;58442;52.716;23.560;2023-04-22T02:32:51;101251.48;;;10.04;57.54
70521;BME280;58442;52.716;23.560;2023-04-22T02:34:52;101245.57;;;10.02;57.64
70521;BME280;58442;52.716;23.560;2023-04-22T02:36:54;101249.42;;;10.01;57.74
70521;BME280;58442;52.716;23.560;2023-04-22T02:38:56;101249.42;;;10.01;57.71
70521;BME280;58442;52.716;23.560;2023-04-22T02:41:06;101243.20;;;10.00;57.64
70521;BME280;58442;52.716;23.560;2023-04-22T02:43:07;101249.75;;;9.99;57.65
70521;BME280;58442;52.716;23.560;2023-04-22T02:45:09;101259.36;;;9.97;57.67
70521;BME280;58442;52.716;23.560;2023-04-22T02:47:11;101255.24;;;9.91;57.73
70521;BME280;58442;52.716;23.560;2023-04-22T02:49:20;101245.70;;;9.84;57.83
70521;BME280;58442;52.716;23.560;2023-04-22T02:51:22;101252.44;;;9.78;58.04
70521;BME280;58442;52.716;23.560;2023-04-22T02:53:24;101256.93;;;9.74;58.16
70521;BME280;58442;52.716;23.560;2023-04-22T02:55:25;101246.07;;;9.74;58.22
70521;BME280;58442;52.716;23.560;2023-04-22T02:57:35;101249.91;;;9.73;58.06
70521;BME280;58442;52.716;23.560;2023-04-22T02:59:37;101251.04;;;9.72;58.09
70521;BME280;58442;52.716;23.560;2023-04-22T03:01:38;101252.96;;;9.72;58.09
70521;BME280;58442;52.716;23.560;2023-04-22T03:03:39;101256.01;;;9.70;57.97
70521;BME280;58442;52.716;23.560;2023-04-22T03:05:50;101258.72;;;9.70;58.14
70521;BME280;58442;52.716;23.560;2023-04-22T03:07:52;101256.66;;;9.67;58.26
70521;BME280;58442;52.716;23.560;2023-04-22T03:09:53;101253.94;;;9.67;58.32
70521;BME280;58442;52.716;23.560;2023-04-22T03:11:55;101261.63;;;9.65;58.38
70521;BME280;58442;52.716;23.560;2023-04-22T03:14:05;101260.37;;;9.63;58.44
70521;BME280;58442;52.716;23.560;2023-04-22T03:16:08;101263.08;;;9.63;58.46
70521;BME280;58442;52.716;23.560;2023-04-22T03:18:09;101251.44;;;9.62;58.53
70521;BME280;58442;52.716;23.560;2023-04-22T03:20:11;101259.57;;;9.62;58.57
70521;BME280;58442;52.716;23.560;2023-04-22T03:22:20;101257.50;;;9.59;58.64
70521;BME280;58442;52.716;23.560;2023-04-22T03:24:22;101257.16;;;9.60;58.69
70521;BME280;58442;52.716;23.560;2023-04-22T03:26:23;101260.22;;;9.59;58.70
70521;BME280;58442;52.716;23.560;2023-04-22T03:28:24;101256.38;;;9.60;58.69
70521;BME280;58442;52.716;23.560;2023-04-22T03:30:35;101267.23;;;9.60;58.78
70521;BME280;58442;52.716;23.560;2023-04-22T03:32:36;101262.93;;;9.59;58.91
70521;BME280;58442;52.716;23.560;2023-04-22T03:34:38;101262.14;;;9.58;59.01
70521;BME280;58442;52.716;23.560;2023-04-22T03:36:39;101265.64;;;9.59;59.07
70521;BME280;58442;52.716;23.560;2023-04-22T03:38:50;101274.58;;;9.59;59.08
70521;BME280;58442;52.716;23.560;2023-04-22T03:40:51;101272.20;;;9.58;59.18
70521;BME280;58442;52.716;23.560;2023-04-22T03:42:53;101273.04;;;9.50;59.47
70521;BME280;58442;52.716;23.560;2023-04-22T03:44:55;101276.59;;;9.42;59.78
70521;BME280;58442;52.716;23.560;2023-04-22T03:47:05;101271.80;;;9.39;59.98
70521;BME280;58442;52.716;23.560;2023-04-22T03:49:06;101269.09;;;9.39;60.17
70521;BME280;58442;52.716;23.560;2023-04-22T03:51:08;101274.34;;;9.44;60.17
70521;BME280;58442;52.716;23.560;2023-04-22T03:53:09;101273.68;;;9.47;60.07
70521;BME280;58442;52.716;23.560;2023-04-22T03:55:20;101273.04;;;9.50;60.06
70521;BME280;58442;52.716;23.560;2023-04-22T03:57:21;101275.09;;;9.53;60.14
70521;BME280;58442;52.716;23.560;2023-04-22T03:59:22;101274.45;;;9.56;60.14
70521;BME280;58442;52.716;23.560;2023-04-22T04:01:24;101276.49;;;9.59;60.06
70521;BME280;58442;52.716;23.560;2023-04-22T04:03:34;101280.49;;;9.62;60.04
70521;BME280;58442;52.716;23.560;2023-04-22T04:05:36;101289.09;;;9.64;60.16
70521;BME280;58442;52.716;23.560;2023-04-22T04:07:37;101280.63;;;9.65;60.22
70521;BME280;58442;52.716;23.560;2023-04-22T04:09:39;101278.36;;;9.67;60.20
70521;BME280;58442;52.716;23.560;2023-04-22T04:11:49;101276.14;;;9.69;60.22
70521;BME280;58442;52.716;23.560;2023-04-22T04:13:51;101273.89;;;9.71;60.31
70521;BME280;58442;52.716;23.560;2023-04-22T04:15:52;101280.56;;;9.74;60.33
70521;BME280;58442;52.716;23.560;2023-04-22T04:17:54;101283.77;;;9.76;60.35
70521;BME280;58442;52.716;23.560;2023-04-22T04:20:05;101279.26;;;9.80;60.34
70521;BME280;58442;52.716;23.560;2023-04-22T04:22:07;101284.84;;;9.83;60.44
70521;BME280;58442;52.716;23.560;2023-04-22T04:24:10;101285.75;;;9.87;60.40
70521;BME280;58442;52.716;23.560;2023-04-22T04:26:12;101285.57;;;9.93;60.34
70521;BME280;58442;52.716;23.560;2023-04-22T04:28:19;101290.81;;;9.98;60.29
70521;BME280;58442;52.716;23.560;2023-04-22T04:30:22;101292.87;;;10.01;60.40
70521;BME280;58442;52.716;23.560;2023-04-22T04:32:25;101297.65;;;10.04;60.44
70521;BME280;58442;52.716;23.560;2023-04-22T04:34:27;101290.75;;;10.06;60.45
70521;BME280;58442;52.716;23.560;2023-04-22T04:36:34;101300.64;;;10.11;60.46
70521;BME280;58442;52.716;23.560;2023-04-22T04:38:39;101303.16;;;10.16;60.51
70521;BME280;58442;52.716;23.560;2023-04-22T04:40:40;101296.39;;;10.22;60.37
70521;BME280;58442;52.716;23.560;2023-04-22T04:42:45;101303.25;;;10.28;60.19
70521;BME280;58442;52.716;23.560;2023-04-22T04:44:49;101297.96;;;10.32;60.14
70521;BME280;58442;52.716;23.560;2023-04-22T04:46:51;101303.99;;;10.37;60.14
70521;BME280;58442;52.716;23.560;2023-04-22T04:48:55;101308.11;;;10.44;60.01
70521;BME280;58442;52.716;23.560;2023-04-22T04:50:58;101307.09;;;10.48;59.91
70521;BME280;58442;52.716;23.560;2023-04-22T04:53:04;101303.05;;;10.54;59.82
70521;BME280;58442;52.716;23.560;2023-04-22T04:55:07;101311.01;;;10.59;59.79
70521;BME280;58442;52.716;23.560;2023-04-22T04:57:09;101301.04;;;10.63;59.76
70521;BME280;58442;52.716;23.560;2023-04-22T04:59:11;101301.63;;;10.69;59.71
70521;BME280;58442;52.716;23.560;2023-04-22T05:01:19;101308.00;;;10.73;59.68
70521;BME280;58442;52.716;23.560;2023-04-22T05:03:20;101311.31;;;10.79;59.73
70521;BME280;58442;52.716;23.560;2023-04-22T05:05:22;101304.41;;;10.81;59.77
70521;BME280;58442;52.716;23.560;2023-04-22T05:07:23;101318.93;;;10.85;59.76
70521;BME280;58442;52.716;23.560;2023-04-22T05:09:34;101312.02;;;10.88;59.73
70521;BME280;58442;52.716;23.560;2023-04-22T05:11:37;101328.79;;;10.90;59.76
70521;BME280;58442;52.716;23.560;2023-04-22T05:13:39;101321.11;;;10.92;59.70
70521;BME280;58442;52.716;23.560;2023-04-22T05:15:40;101327.80;;;10.94;59.62
70521;BME280;58442;52.716;23.560;2023-04-22T05:17:49;101328.24;;;10.96;59.52
70521;BME280;58442;52.716;23.560;2023-04-22T05:19:50;101325.66;;;11.00;59.41
70521;BME280;58442;52.716;23.560;2023-04-22T05:21:51;101324.98;;;11.03;59.37
70521;BME280;58442;52.716;23.560;2023-04-22T05:23:53;101330.09;;;11.05;59.36
70521;BME280;58442;52.716;23.560;2023-04-22T05:26:03;101322.85;;;11.09;59.26
70521;BME280;58442;52.716;23.560;2023-04-22T05:28:05;101324.23;;;11.15;59.30
70521;BME280;58442;52.716;23.560;2023-04-22T05:30:08;101336.15;;;11.22;59.17
70521;BME280;58442;52.716;23.560;2023-04-22T05:32:09;101328.56;;;11.28;59.07
70521;BME280;58442;52.716;23.560;2023-04-22T05:34:18;101336.53;;;11.33;59.01
70521;BME280;58442;52.716;23.560;2023-04-22T05:36:20;101342.20;;;11.40;59.00
70521;BME280;58442;52.716;23.560;2023-04-22T05:38:21;101336.86;;;11.44;58.93
70521;BME280;58442;52.716;23.560;2023-04-22T05:40:23;101335.42;;;11.46;58.95
70521;BME280;58442;52.716;23.560;2023-04-22T05:42:33;101331.66;;;11.51;59.04
70521;BME280;58442;52.716;23.560;2023-04-22T05:44:35;101329.95;;;11.59;59.06
70521;BME280;58442;52.716;23.560;2023-04-22T05:46:36;101329.09;;;11.67;58.98
70521;BME280;58442;52.716;23.560;2023-04-22T05:48:38;101319.20;;;11.74;58.83
70521;BME280;58442;52.716;23.560;2023-04-22T05:50:48;101329.22;;;11.83;58.71
70521;BME280;58442;52.716;23.560;2023-04-22T05:52:49;101323.99;;;11.90;58.70
70521;BME280;58442;52.716;23.560;2023-04-22T05:54:51;101326.14;;;11.96;58.65
70521;BME280;58442;52.716;23.560;2023-04-22T05:56:52;101326.37;;;12.03;58.57
70521;BME280;58442;52.716;23.560;2023-04-22T05:59:03;101335.10;;;12.09;58.54
70521;BME280;58442;52.716;23.560;2023-04-22T06:01:04;101328.16;;;12.12;58.54
70521;BME280;58442;52.716;23.560;2023-04-22T06:03:06;101330.22;;;12.15;58.58
70521;BME280;58442;52.716;23.560;2023-04-22T06:05:08;101328.73;;;12.17;58.59
70521;BME280;58442;52.716;23.560;2023-04-22T06:07:18;101319.96;;;12.24;58.55
70521;BME280;58442;52.716;23.560;2023-04-22T06:09:20;101319.40;;;12.30;58.49
70521;BME280;58442;52.716;23.560;2023-04-22T06:11:22;101314.94;;;12.38;58.38
70521;BME280;58442;52.716;23.560;2023-04-22T06:13:23;101319.45;;;12.46;58.25
70521;BME280;58442;52.716;23.560;2023-04-22T06:15:33;101316.93;;;12.53;58.13
70521;BME280;58442;52.716;23.560;2023-04-22T06:17:34;101321.80;;;12.60;58.03
70521;BME280;58442;52.716;23.560;2023-04-22T06:19:36;101318.48;;;12.67;57.97
70521;BME280;58442;52.716;23.560;2023-04-22T06:21:38;101323.69;;;12.72;57.90
70521;BME280;58442;52.716;23.560;2023-04-22T06:23:48;101322.63;;;12.76;57.81
70521;BME280;58442;52.716;23.560;2023-04-22T06:25:49;101321.16;;;12.79;57.79
70521;BME280;58442;52.716;23.560;2023-04-22T06:27:50;101325.47;;;12.80;57.81
70521;BME280;58442;52.716;23.560;2023-04-22T06:29:52;101320.20;;;12.87;57.73
70521;BME280;58442;52.716;23.560;2023-04-22T06:32:02;101318.45;;;12.95;57.55
70521;BME280;58442;52.716;23.560;2023-04-22T06:34:04;101312.84;;;13.03;57.37
70521;BME280;58442;52.716;23.560;2023-04-22T06:36:06;101313.02;;;13.10;57.23
70521;BME280;58442;52.716;23.560;2023-04-22T06:38:08;101312.41;;;13.17;57.09
70521;BME280;58442;52.716;23.560;2023-04-22T06:40:17;101312.30;;;13.26;56.98
70521;BME280;58442;52.716;23.560;2023-04-22T06:42:19;101318.38;;;13.35;56.85
70521;BME280;58442;52.716;23.560;2023-04-22T06:44:20;101312.41;;;13.45;56.71
70521;BME280;58442;52.716;23.560;2023-04-22T06:46:22;101314.23;;;13.57;56.59
70521;BME280;58442;52.716;23.560;2023-04-22T06:48:32;101307.88;;;13.68;56.38
70521;BME280;58442;52.716;23.560;2023-04-22T06:50:34;101308.13;;;13.79;56.15
70521;BME280;58442;52.716;23.560;2023-04-22T06:52:36;101317.47;;;13.94;55.83
70521;BME280;58442;52.716;23.560;2023-04-22T06:54:37;101311.86;;;14.06;55.60
70521;BME280;58442;52.716;23.560;2023-04-22T06:56:47;101306.38;;;14.22;55.31
70521;BME280;58442;52.716;23.560;2023-04-22T06:58:48;101321.13;;;14.37;54.82
70521;BME280;58442;52.716;23.560;2023-04-22T07:00:50;101316.77;;;14.52;54.69
70521;BME280;58442;52.716;23.560;2023-04-22T07:02:52;101312.02;;;14.68;54.27
70521;BME280;58442;52.716;23.560;2023-04-22T07:05:02;101316.68;;;14.87;53.78
70521;BME280;58442;52.716;23.560;2023-04-22T07:07:03;101315.08;;;15.05;53.14
70521;BME280;58442;52.716;23.560;2023-04-22T07:09:05;101316.53;;;15.22;52.71
70521;BME280;58442;52.716;23.560;2023-04-22T07:11:07;101320.32;;;15.37;52.32
70521;BME280;58442;52.716;23.560;2023-04-22T07:13:16;101317.02;;;15.50;51.92
70521;BME280;58442;52.716;23.560;2023-04-22T07:15:18;101316.87;;;15.63;51.61
70521;BME280;58442;52.716;23.560;2023-04-22T07:17:19;101311.98;;;15.75;51.31
70521;BME280;58442;52.716;23.560;2023-04-22T07:19:22;101314.94;;;15.90;51.04
70521;BME280;58442;52.716;23.560;2023-04-22T07:21:32;101319.11;;;16.06;50.73
70521;BME280;58442;52.716;23.560;2023-04-22T07:23:33;101316.19;;;16.22;50.33
70521;BME280;58442;52.716;23.560;2023-04-22T07:25:35;101318.73;;;16.38;49.82
70521;BME280;58442;52.716;23.560;2023-04-22T07:27:36;101311.06;;;16.51;49.40
70521;BME280;58442;52.716;23.560;2023-04-22T07:29:46;101316.71;;;16.65;49.09
70521;BME280;58442;52.716;23.560;2023-04-22T07:31:47;101318.87;;;16.79;48.66
70521;BME280;58442;52.716;23.560;2023-04-22T07:33:49;101307.25;;;16.92;48.24
70521;BME280;58442;52.716;23.560;2023-04-22T07:35:50;101306.60;;;17.06;47.92
70521;BME280;58442;52.716;23.560;2023-04-22T07:38:01;101310.27;;;17.21;47.56
70521;BME280;58442;52.716;23.560;2023-04-22T07:40:03;101308.44;;;17.36;46.98
70521;BME280;58442;52.716;23.560;2023-04-22T07:42:10;101306.96;;;17.45;46.82
70521;BME280;58442;52.716;23.560;2023-04-22T07:44:13;101302.33;;;17.57;46.59
70521;BME280;58442;52.716;23.560;2023-04-22T07:46:21;101301.24;;;17.68;46.37
70521;BME280;58442;52.716;23.560;2023-04-22T07:48:22;101305.30;;;17.82;46.10
70521;BME280;58442;52.716;23.560;2023-04-22T07:50:24;101303.81;;;17.95;45.81
70521;BME280;58442;52.716;23.560;2023-04-22T07:52:25;101298.39;;;18.06;45.52
70521;BME280;58442;52.716;23.560;2023-04-22T07:54:30;101303.14;;;18.16;45.15
70521;BME280;58442;52.716;23.560;2023-04-22T07:56:32;101304.75;;;18.24;45.03
70521;BME280;58442;52.716;23.560;2023-04-22T07:58:34;101304.42;;;18.36;44.87
70521;BME280;58442;52.716;23.560;2023-04-22T08:00:36;101294.64;;;18.49;44.62
70521;BME280;58442;52.716;23.560;2023-04-22T08:02:45;101301.77;;;18.65;44.32
70521;BME280;58442;52.716;23.560;2023-04-22T08:04:47;101301.85;;;18.75;43.96
70521;BME280;58442;52.716;23.560;2023-04-22T08:06:48;101297.53;;;18.85;43.70
70521;BME280;58442;52.716;23.560;2023-04-22T08:08:50;101298.34;;;19.00;43.49
70521;BME280;58442;52.716;23.560;2023-04-22T08:11:00;101298.76;;;19.12;43.33
70521;BME280;58442;52.716;23.560;2023-04-22T08:13:01;101297.59;;;19.24;43.04
70521;BME280;58442;52.716;23.560;2023-04-22T08:15:03;101300.34;;;19.35;42.88
70521;BME280;58442;52.716;23.560;2023-04-22T08:17:06;101295.65;;;19.43;42.68
70521;BME280;58442;52.716;23.560;2023-04-22T08:19:15;101295.63;;;19.53;42.57
70521;BME280;58442;52.716;23.560;2023-04-22T08:21:16;101296.84;;;19.66;42.40
70521;BME280;58442;52.716;23.560;2023-04-22T08:23:18;101296.84;;;19.70;42.29
70521;BME280;58442;52.716;23.560;2023-04-22T08:25:19;101293.67;;;19.50;42.54
70521;BME280;58442;52.716;23.560;2023-04-22T08:27:29;101286.17;;;19.26;42.74
70521;BME280;58442;52.716;23.560;2023-04-22T08:29:31;101293.64;;;19.04;42.66
70521;BME280;58442;52.716;23.560;2023-04-22T08:31:33;101295.15;;;18.80;42.77
70521;BME280;58442;52.716;23.560;2023-04-22T08:33:35;101287.62;;;18.63;42.78
70521;BME280;58442;52.716;23.560;2023-04-22T08:35:44;101294.23;;;18.44;42.83
70521;BME280;58442;52.716;23.560;2023-04-22T08:37:45;101284.34;;;18.32;42.81
70521;BME280;58442;52.716;23.560;2023-04-22T08:39:47;101287.06;;;18.21;42.74
70521;BME280;58442;52.716;23.560;2023-04-22T08:41:49;101285.03;;;18.11;42.83
70521;BME280;58442;52.716;23.560;2023-04-22T08:43:59;101283.02;;;18.04;42.88
70521;BME280;58442;52.716;23.560;2023-04-22T08:46:01;101295.59;;;18.02;42.91
70521;BME280;58442;52.716;23.560;2023-04-22T08:48:03;101281.05;;;18.01;42.93
70521;BME280;58442;52.716;23.560;2023-04-22T08:50:07;101290.50;;;18.04;42.84
70521;BME280;58442;52.716;23.560;2023-04-22T08:52:13;101285.78;;;18.04;42.81
70521;BME280;58442;52.716;23.560;2023-04-22T08:54:15;101285.78;;;18.04;42.67
70521;BME280;58442;52.716;23.560;2023-04-22T08:56:16;101292.45;;;18.03;42.62
70521;BME280;58442;52.716;23.560;2023-04-22T08:58:18;101283.45;;;18.07;42.57
70521;BME280;58442;52.716;23.560;2023-04-22T09:00:29;101281.09;;;18.09;42.55
70521;BME280;58442;52.716;23.560;2023-04-22T09:02:36;101284.24;;;18.11;42.53
70521;BME280;58442;52.716;23.560;2023-04-22T09:04:39;101288.56;;;18.12;42.49
70521;BME280;58442;52.716;23.560;2023-04-22T09:06:43;101288.59;;;18.15;42.44
70521;BME280;58442;52.716;23.560;2023-04-22T09:08:45;101284.70;;;18.20;42.41
70521;BME280;58442;52.716;23.560;2023-04-22T09:10:47;101285.13;;;18.25;42.28
70521;BME280;58442;52.716;23.560;2023-04-22T09:12:50;101292.20;;;18.30;42.11
70521;BME280;58442;52.716;23.560;2023-04-22T09:14:52;101285.16;;;18.33;42.03
70521;BME280;58442;52.716;23.560;2023-04-22T09:16:58;101293.02;;;18.38;41.88
70521;BME280;58442;52.716;23.560;2023-04-22T09:18:59;101289.52;;;18.44;41.79
70521;BME280;58442;52.716;23.560;2023-04-22T09:21:02;101286.36;;;18.46;41.60
70521;BME280;58442;52.716;23.560;2023-04-22T09:23:04;101289.52;;;18.44;41.50
70521;BME280;58442;52.716;23.560;2023-04-22T09:25:19;101285.57;;;18.45;41.53
70521;BME280;58442;52.716;23.560;2023-04-22T09:27:23;101282.82;;;18.45;41.29
70521;BME280;58442;52.716;23.560;2023-04-22T09:29:29;101281.27;;;18.48;41.11
70521;BME280;58442;52.716;23.560;2023-04-22T09:31:31;101284.05;;;18.55;40.89
70521;BME280;58442;52.716;23.560;2023-04-22T09:33:37;101280.92;;;18.64;40.81
70521;BME280;58442;52.716;23.560;2023-04-22T09:35:41;101281.03;;;18.89;40.39
70521;BME280;58442;52.716;23.560;2023-04-22T09:37:43;101280.27;;;19.09;40.04
70521;BME280;58442;52.716;23.560;2023-04-22T09:39:50;101274.34;;;19.14;40.00
70521;BME280;58442;52.716;23.560;2023-04-22T09:41:53;101272.39;;;19.19;39.86
70521;BME280;58442;52.716;23.560;2023-04-22T09:43:58;101275.16;;;19.33;39.68
70521;BME280;58442;52.716;23.560;2023-04-22T09:46:00;101268.06;;;19.46;39.56
70521;BME280;58442;52.716;23.560;2023-04-22T09:48:08;101273.16;;;19.87;38.97
70521;BME280;58442;52.716;23.560;2023-04-22T09:50:10;101268.73;;;20.14;38.67
70521;BME280;58442;52.716;23.560;2023-04-22T09:54:26;101263.02;;;20.64;38.25
70521;BME280;58442;52.716;23.560;2023-04-22T09:58:42;101263.79;;;20.65;38.11
70521;BME280;58442;52.716;23.560;2023-04-22T10:00:54;101259.45;;;20.67;38.00
70521;BME280;58442;52.716;23.560;2023-04-22T10:02:56;101262.23;;;20.64;37.92
70521;BME280;58442;52.716;23.560;2023-04-22T10:04:58;101255.13;;;20.63;37.91
70521;BME280;58442;52.716;23.560;2023-04-22T10:07:01;101259.88;;;20.59;37.80
70521;BME280;58442;52.716;23.560;2023-04-22T10:09:06;101264.24;;;20.56;37.65
70521;BME280;58442;52.716;23.560;2023-04-22T10:11:09;101257.60;;;20.46;37.49
70521;BME280;58442;52.716;23.560;2023-04-22T10:13:11;101257.60;;;20.39;37.38
70521;BME280;58442;52.716;23.560;2023-04-22T10:15:13;101258.42;;;20.33;37.36
70521;BME280;58442;52.716;23.560;2023-04-22T10:17:21;101261.22;;;20.26;37.47
70521;BME280;58442;52.716;23.560;2023-04-22T10:19:24;101256.88;;;20.25;37.26
70521;BME280;58442;52.716;23.560;2023-04-22T10:21:27;101256.10;;;20.17;37.34
70521;BME280;58442;52.716;23.560;2023-04-22T10:23:31;101257.72;;;20.07;37.49
70521;BME280;58442;52.716;23.560;2023-04-22T10:25:36;101261.70;;;19.99;37.71
70521;BME280;58442;52.716;23.560;2023-04-22T10:27:39;101261.72;;;19.92;37.75
70521;BME280;58442;52.716;23.560;2023-04-22T10:29:41;101260.14;;;19.87;37.70
70521;BME280;58442;52.716;23.560;2023-04-22T10:36:16;101256.23;;;19.78;37.97
70521;BME280;58442;52.716;23.560;2023-04-22T10:38:22;101261.35;;;19.79;38.06
70521;BME280;58442;52.716;23.560;2023-04-22T10:40:23;101261.73;;;19.81;38.00
70521;BME280;58442;52.716;23.560;2023-04-22T10:42:27;101261.73;;;19.81;38.07
70521;BME280;58442;52.716;23.560;2023-04-22T10:46:54;101260.19;;;19.77;37.98
70521;BME280;58442;52.716;23.560;2023-04-22T10:48:57;101260.56;;;19.79;38.01